sensor_id;sensor_type;location;lat;lon;timestamp;temperature;humidity
8780;DHT22;62328;51.19929245;4.42130175;2022-11-13T00:01:34;10.00;99.90
8780;DHT22;62328;51.19929245;4.42130175;2022-11-13T00:04:04;10.00;99.90
8780;DHT22;62328;51.19929245;4.42130175;2022-11-13T00:06:35;9.90;99.90
8780;DHT22;62328;51.19929245;4.42130175;2022-11-13T00:09:05;9.90;99.90
8780;DHT22;62328;51.19929245;4.42130175;2022-11-13T00:11:32;9.90;99.90
8780;DHT22;62328;51.19929245;4.42130175;2022-11-13T00:14:02;9.90;99.90
8780;DHT22;62328;51.19929245;4.42130175;2022-11-13T00:16:42;9.90;99.90
8780;DHT22;62328;51.19929245;4.42130175;2022-11-13T00:19:10;9.80;99.90
8780;DHT22;62328;51.19929245;4.42130175;2022-11-13T00:21:40;9.80;99.90
8780;DHT22;62328;51.19929245;4.42130175;2022-11-13T00:24:07;9.80;99.90
8780;DHT22;62328;51.19929245;4.42130175;2022-11-13T00:26:36;9.80;99.90
8780;DHT22;62328;51.19929245;4.42130175;2022-11-13T00:29:07;9.80;99.90
8780;DHT22;62328;51.19929245;4.42130175;2022-11-13T00:31:39;9.70;99.90
8780;DHT22;62328;51.19929245;4.42130175;2022-11-13T00:34:09;9.70;99.90
8780;DHT22;62328;51.19929245;4.42130175;2022-11-13T00:36:39;9.70;99.90
8780;DHT22;62328;51.19929245;4.42130175;2022-11-13T00:39:09;9.70;99.90
8780;DHT22;62328;51.19929245;4.42130175;2022-11-13T00:41:39;9.70;99.90
8780;DHT22;62328;51.19929245;4.42130175;2022-11-13T00:44:08;9.70;99.90
8780;DHT22;62328;51.19929245;4.42130175;2022-11-13T00:46:39;9.60;99.90
8780;DHT22;62328;51.19929245;4.42130175;2022-11-13T00:49:07;9.60;99.90
8780;DHT22;62328;51.19929245;4.42130175;2022-11-13T00:51:38;9.60;99.90
8780;DHT22;62328;51.19929245;4.42130175;2022-11-13T00:54:07;9.60;99.90
8780;DHT22;62328;51.19929245;4.42130175;2022-11-13T00:56:37;9.60;99.90
8780;DHT22;62328;51.19929245;4.42130175;2022-11-13T00:59:07;9.60;99.90
8780;DHT22;62328;51.19929245;4.42130175;2022-11-13T01:01:39;9.60;99.90
8780;DHT22;62328;51.19929245;4.42130175;2022-11-13T01:04:08;9.50;99.90
8780;DHT22;62328;51.19929245;4.42130175;2022-11-13T01:06:38;9.50;99.90
8780;DHT22;62328;51.19929245;4.42130175;2022-11-13T01:09:08;9.50;99.90
8780;DHT22;62328;51.19929245;4.42130175;2022-11-13T01:11:38;9.60;99.90
8780;DHT22;62328;51.19929245;4.42130175;2022-11-13T01:14:08;9.50;99.90
8780;DHT22;62328;51.19929245;4.42130175;2022-11-13T01:16:39;9.60;99.90
8780;DHT22;62328;51.19929245;4.42130175;2022-11-13T01:19:09;9.60;99.90
8780;DHT22;62328;51.19929245;4.42130175;2022-11-13T01:21:39;9.70;99.90
8780;DHT22;62328;51.19929245;4.42130175;2022-11-13T01:24:09;9.80;99.90
8780;DHT22;62328;51.19929245;4.42130175;2022-11-13T01:26:39;9.80;99.90
8780;DHT22;62328;51.19929245;4.42130175;2022-11-13T01:29:09;9.80;99.90
8780;DHT22;62328;51.19929245;4.42130175;2022-11-13T01:31:41;9.80;99.90
8780;DHT22;62328;51.19929245;4.42130175;2022-11-13T01:34:11;9.70;99.90
8780;DHT22;62328;51.19929245;4.42130175;2022-11-13T01:36:40;9.70;99.90
8780;DHT22;62328;51.19929245;4.42130175;2022-11-13T01:39:10;9.70;99.90
8780;DHT22;62328;51.19929245;4.42130175;2022-11-13T01:41:40;9.70;99.90
8780;DHT22;62328;51.19929245;4.42130175;2022-11-13T01:44:12;9.60;99.90
8780;DHT22;62328;51.19929245;4.42130175;2022-11-13T01:46:46;9.60;99.90
8780;DHT22;62328;51.19929245;4.42130175;2022-11-13T01:49:25;9.70;99.90
8780;DHT22;62328;51.19929245;4.42130175;2022-11-13T01:51:57;9.70;99.90
8780;DHT22;62328;51.19929245;4.42130175;2022-11-13T01:54:29;9.60;99.90
8780;DHT22;62328;51.19929245;4.42130175;2022-11-13T01:57:03;9.60;99.90
8780;DHT22;62328;51.19929245;4.42130175;2022-11-13T01:59:34;9.60;99.90
8780;DHT22;62328;51.19929245;4.42130175;2022-11-13T02:02:08;9.50;99.90
8780;DHT22;62328;51.19929245;4.42130175;2022-11-13T02:04:39;9.50;99.90
8780;DHT22;62328;51.19929245;4.42130175;2022-11-13T02:07:11;9.60;99.90
8780;DHT22;62328;51.19929245;4.42130175;2022-11-13T02:09:42;9.50;99.90
8780;DHT22;62328;51.19929245;4.42130175;2022-11-13T02:12:14;9.50;99.90
8780;DHT22;62328;51.19929245;4.42130175;2022-11-13T02:14:46;9.50;99.90
8780;DHT22;62328;51.19929245;4.42130175;2022-11-13T02:17:20;9.40;99.90
8780;DHT22;62328;51.19929245;4.42130175;2022-11-13T02:19:54;9.40;99.90
8780;DHT22;62328;51.19929245;4.42130175;2022-11-13T02:22:28;9.40;99.90
8780;DHT22;62328;51.19929245;4.42130175;2022-11-13T02:25:16;9.30;99.90
8780;DHT22;62328;51.19929245;4.42130175;2022-11-13T02:27:48;9.40;99.90
8780;DHT22;62328;51.19929245;4.42130175;2022-11-13T02:30:18;9.40;99.90
8780;DHT22;62328;51.19929245;4.42130175;2022-11-13T02:32:50;9.50;99.90
8780;DHT22;62328;51.19929245;4.42130175;2022-11-13T02:35:23;9.40;99.90
8780;DHT22;62328;51.19929245;4.42130175;2022-11-13T02:37:54;9.40;99.90
8780;DHT22;62328;51.19929245;4.42130175;2022-11-13T02:40:24;9.40;99.90
8780;DHT22;62328;51.19929245;4.42130175;2022-11-13T02:42:56;9.30;99.90
8780;DHT22;62328;51.19929245;4.42130175;2022-11-13T02:45:24;9.20;99.90
8780;DHT22;62328;51.19929245;4.42130175;2022-11-13T02:47:54;9.20;99.90
8780;DHT22;62328;51.19929245;4.42130175;2022-11-13T02:50:21;9.20;99.90
8780;DHT22;62328;51.19929245;4.42130175;2022-11-13T03:23:05;9.00;99.90
8780;DHT22;62328;51.19929245;4.42130175;2022-11-13T03:25:33;9.00;99.90
8780;DHT22;62328;51.19929245;4.42130175;2022-11-13T03:28:03;9.00;99.90
8780;DHT22;62328;51.19929245;4.42130175;2022-11-13T03:30:30;8.90;99.90
8780;DHT22;62328;51.19929245;4.42130175;2022-11-13T03:33:01;8.90;99.90
8780;DHT22;62328;51.19929245;4.42130175;2022-11-13T03:35:28;8.90;99.90
8780;DHT22;62328;51.19929245;4.42130175;2022-11-13T03:37:59;8.90;99.90
8780;DHT22;62328;51.19929245;4.42130175;2022-11-13T03:40:26;8.80;99.90
8780;DHT22;62328;51.19929245;4.42130175;2022-11-13T03:42:56;8.80;99.90
8780;DHT22;62328;51.19929245;4.42130175;2022-11-13T03:45:25;8.80;99.90
8780;DHT22;62328;51.19929245;4.42130175;2022-11-13T03:47:55;8.70;99.90
8780;DHT22;62328;51.19929245;4.42130175;2022-11-13T03:50:24;8.70;99.90
8780;DHT22;62328;51.19929245;4.42130175;2022-11-13T03:52:55;8.70;99.90
8780;DHT22;62328;51.19929245;4.42130175;2022-11-13T03:55:26;8.70;99.90
8780;DHT22;62328;51.19929245;4.42130175;2022-11-13T03:57:56;8.70;99.90
8780;DHT22;62328;51.19929245;4.42130175;2022-11-13T04:00:26;8.70;99.90
8780;DHT22;62328;51.19929245;4.42130175;2022-11-13T04:02:57;8.70;99.90
8780;DHT22;62328;51.19929245;4.42130175;2022-11-13T04:05:27;8.60;99.90
8780;DHT22;62328;51.19929245;4.42130175;2022-11-13T04:07:56;8.70;99.90
8780;DHT22;62328;51.19929245;4.42130175;2022-11-13T04:10:28;8.70;99.90
8780;DHT22;62328;51.19929245;4.42130175;2022-11-13T04:12:58;8.70;99.90
8780;DHT22;62328;51.19929245;4.42130175;2022-11-13T04:15:28;8.70;99.90
8780;DHT22;62328;51.19929245;4.42130175;2022-11-13T04:17:58;8.70;99.90
8780;DHT22;62328;51.19929245;4.42130175;2022-11-13T04:20:26;8.70;99.90
8780;DHT22;62328;51.19929245;4.42130175;2022-11-13T04:22:58;8.70;99.90
8780;DHT22;62328;51.19929245;4.42130175;2022-11-13T04:25:39;8.70;99.90
8780;DHT22;62328;51.19929245;4.42130175;2022-11-13T04:28:08;8.70;99.90
8780;DHT22;62328;51.19929245;4.42130175;2022-11-13T04:30:38;8.70;99.90
8780;DHT22;62328;51.19929245;4.42130175;2022-11-13T04:33:08;8.70;99.90
8780;DHT22;62328;51.19929245;4.42130175;2022-11-13T04:35:35;8.70;99.90
8780;DHT22;62328;51.19929245;4.42130175;2022-11-13T04:38:04;8.70;99.90
8780;DHT22;62328;51.19929245;4.42130175;2022-11-13T04:40:32;8.60;99.90
8780;DHT22;62328;51.19929245;4.42130175;2022-11-13T04:43:04;8.70;99.90
8780;DHT22;62328;51.19929245;4.42130175;2022-11-13T04:45:32;8.60;99.90
8780;DHT22;62328;51.19929245;4.42130175;2022-11-13T04:48:03;8.60;99.90
8780;DHT22;62328;51.19929245;4.42130175;2022-11-13T04:50:32;8.60;99.90
8780;DHT22;62328;51.19929245;4.42130175;2022-11-13T04:53:03;8.60;99.90
8780;DHT22;62328;51.19929245;4.42130175;2022-11-13T04:55:33;8.70;99.90
8780;DHT22;62328;51.19929245;4.42130175;2022-11-13T04:58:04;8.70;99.90
8780;DHT22;62328;51.19929245;4.42130175;2022-11-13T05:00:34;8.70;99.90
8780;DHT22;62328;51.19929245;4.42130175;2022-11-13T05:03:04;8.70;99.90
8780;DHT22;62328;51.19929245;4.42130175;2022-11-13T05:05:34;8.70;99.90
8780;DHT22;62328;51.19929245;4.42130175;2022-11-13T05:08:03;8.70;99.90
8780;DHT22;62328;51.19929245;4.42130175;2022-11-13T05:10:31;8.70;99.90
8780;DHT22;62328;51.19929245;4.42130175;2022-11-13T05:13:05;8.70;99.90
8780;DHT22;62328;51.19929245;4.42130175;2022-11-13T05:15:35;8.70;99.90
8780;DHT22;62328;51.19929245;4.42130175;2022-11-13T05:18:04;8.70;99.90
8780;DHT22;62328;51.19929245;4.42130175;2022-11-13T05:20:34;8.70;99.90
8780;DHT22;62328;51.19929245;4.42130175;2022-11-13T05:23:03;8.70;99.90
8780;DHT22;62328;51.19929245;4.42130175;2022-11-13T05:25:33;8.70;99.90
8780;DHT22;62328;51.19929245;4.42130175;2022-11-13T05:28:03;8.70;99.90
8780;DHT22;62328;51.19929245;4.42130175;2022-11-13T05:30:37;8.70;99.90
8780;DHT22;62328;51.19929245;4.42130175;2022-11-13T05:33:07;8.70;99.90
8780;DHT22;62328;51.19929245;4.42130175;2022-11-13T05:35:39;8.70;99.90
8780;DHT22;62328;51.19929245;4.42130175;2022-11-13T05:38:09;8.60;99.90
8780;DHT22;62328;51.19929245;4.42130175;2022-11-13T05:40:39;8.60;99.90
8780;DHT22;62328;51.19929245;4.42130175;2022-11-13T05:43:09;8.60;99.90
8780;DHT22;62328;51.19929245;4.42130175;2022-11-13T05:45:44;8.50;99.90
8780;DHT22;62328;51.19929245;4.42130175;2022-11-13T05:48:14;8.50;99.90
8780;DHT22;62328;51.19929245;4.42130175;2022-11-13T05:50:42;8.50;99.90
8780;DHT22;62328;51.19929245;4.42130175;2022-11-13T05:53:11;8.40;99.90
8780;DHT22;62328;51.19929245;4.42130175;2022-11-13T05:55:41;8.40;99.90
8780;DHT22;62328;51.19929245;4.42130175;2022-11-13T05:58:11;8.40;99.90
8780;DHT22;62328;51.19929245;4.42130175;2022-11-13T06:00:43;8.40;99.90
8780;DHT22;62328;51.19929245;4.42130175;2022-11-13T06:03:12;8.40;99.90
8780;DHT22;62328;51.19929245;4.42130175;2022-11-13T06:05:41;8.30;99.90
8780;DHT22;62328;51.19929245;4.42130175;2022-11-13T06:08:11;8.40;99.90
8780;DHT22;62328;51.19929245;4.42130175;2022-11-13T06:10:41;8.30;99.90
8780;DHT22;62328;51.19929245;4.42130175;2022-11-13T06:13:11;8.30;99.90
8780;DHT22;62328;51.19929245;4.42130175;2022-11-13T06:15:39;8.30;99.90
8780;DHT22;62328;51.19929245;4.42130175;2022-11-13T06:18:13;8.30;99.90
8780;DHT22;62328;51.19929245;4.42130175;2022-11-13T06:20:43;8.20;99.90
8780;DHT22;62328;51.19929245;4.42130175;2022-11-13T06:23:12;8.30;99.90
8780;DHT22;62328;51.19929245;4.42130175;2022-11-13T06:25:41;8.20;99.90
8780;DHT22;62328;51.19929245;4.42130175;2022-11-13T06:28:12;8.20;99.90
8780;DHT22;62328;51.19929245;4.42130175;2022-11-13T06:30:42;8.30;99.90
8780;DHT22;62328;51.19929245;4.42130175;2022-11-13T06:33:13;8.30;99.90
8780;DHT22;62328;51.19929245;4.42130175;2022-11-13T06:35:43;8.30;99.90
8780;DHT22;62328;51.19929245;4.42130175;2022-11-13T06:38:13;8.30;99.90
8780;DHT22;62328;51.19929245;4.42130175;2022-11-13T06:40:43;8.30;99.90
8780;DHT22;62328;51.19929245;4.42130175;2022-11-13T06:43:13;8.30;99.90
8780;DHT22;62328;51.19929245;4.42130175;2022-11-13T06:45:43;8.20;99.90
8780;DHT22;62328;51.19929245;4.42130175;2022-11-13T06:48:15;8.20;99.90
8780;DHT22;62328;51.19929245;4.42130175;2022-11-13T06:50:44;8.10;99.90
8780;DHT22;62328;51.19929245;4.42130175;2022-11-13T06:53:14;8.20;99.90
8780;DHT22;62328;51.19929245;4.42130175;2022-11-13T06:55:45;8.20;99.90
8780;DHT22;62328;51.19929245;4.42130175;2022-11-13T06:58:15;8.10;99.90
8780;DHT22;62328;51.19929245;4.42130175;2022-11-13T07:00:45;8.00;99.90
8780;DHT22;62328;51.19929245;4.42130175;2022-11-13T07:03:18;8.00;99.90
8780;DHT22;62328;51.19929245;4.42130175;2022-11-13T07:05:48;8.00;99.90
8780;DHT22;62328;51.19929245;4.42130175;2022-11-13T07:08:18;8.00;99.90
8780;DHT22;62328;51.19929245;4.42130175;2022-11-13T07:10:52;7.90;99.90
8780;DHT22;62328;51.19929245;4.42130175;2022-11-13T07:13:27;7.90;99.90
8780;DHT22;62328;51.19929245;4.42130175;2022-11-13T07:16:00;7.90;99.90
8780;DHT22;62328;51.19929245;4.42130175;2022-11-13T07:18:35;7.80;99.90
8780;DHT22;62328;51.19929245;4.42130175;2022-11-13T07:21:07;7.80;99.90
8780;DHT22;62328;51.19929245;4.42130175;2022-11-13T07:23:38;7.80;99.90
8780;DHT22;62328;51.19929245;4.42130175;2022-11-13T07:26:10;7.80;99.90
8780;DHT22;62328;51.19929245;4.42130175;2022-11-13T07:28:40;7.80;99.90
8780;DHT22;62328;51.19929245;4.42130175;2022-11-13T07:31:11;7.80;99.90
8780;DHT22;62328;51.19929245;4.42130175;2022-11-13T07:33:43;7.80;99.90
8780;DHT22;62328;51.19929245;4.42130175;2022-11-13T07:36:13;7.70;99.90
8780;DHT22;62328;51.19929245;4.42130175;2022-11-13T07:38:45;7.70;99.90
8780;DHT22;62328;51.19929245;4.42130175;2022-11-13T07:41:15;7.70;99.90
8780;DHT22;62328;51.19929245;4.42130175;2022-11-13T07:43:43;7.70;99.90
8780;DHT22;62328;51.19929245;4.42130175;2022-11-13T07:46:12;7.70;99.90
8780;DHT22;62328;51.19929245;4.42130175;2022-11-13T07:48:44;7.70;99.90
8780;DHT22;62328;51.19929245;4.42130175;2022-11-13T07:51:16;7.70;99.90
8780;DHT22;62328;51.19929245;4.42130175;2022-11-13T07:53:46;7.70;99.90
8780;DHT22;62328;51.19929245;4.42130175;2022-11-13T07:56:16;7.70;99.90
8780;DHT22;62328;51.19929245;4.42130175;2022-11-13T07:58:46;7.80;99.90
8780;DHT22;62328;51.19929245;4.42130175;2022-11-13T08:01:16;7.80;99.90
8780;DHT22;62328;51.19929245;4.42130175;2022-11-13T08:03:46;7.80;99.90
8780;DHT22;62328;51.19929245;4.42130175;2022-11-13T08:06:16;7.80;99.90
8780;DHT22;62328;51.19929245;4.42130175;2022-11-13T08:08:46;7.80;99.90
8780;DHT22;62328;51.19929245;4.42130175;2022-11-13T08:11:17;7.80;99.90
8780;DHT22;62328;51.19929245;4.42130175;2022-11-13T08:13:47;7.80;99.90
8780;DHT22;62328;51.19929245;4.42130175;2022-11-13T08:16:15;7.80;99.90
8780;DHT22;62328;51.19929245;4.42130175;2022-11-13T08:18:49;7.80;99.90
8780;DHT22;62328;51.19929245;4.42130175;2022-11-13T08:21:19;7.90;99.90
8780;DHT22;62328;51.19929245;4.42130175;2022-11-13T08:23:48;7.90;99.90
8780;DHT22;62328;51.19929245;4.42130175;2022-11-13T08:26:18;8.00;99.90
8780;DHT22;62328;51.19929245;4.42130175;2022-11-13T08:28:48;8.00;99.90
8780;DHT22;62328;51.19929245;4.42130175;2022-11-13T08:31:18;8.10;99.90
8780;DHT22;62328;51.19929245;4.42130175;2022-11-13T08:33:50;8.10;99.90
8780;DHT22;62328;51.19929245;4.42130175;2022-11-13T08:36:19;8.20;99.90
8780;DHT22;62328;51.19929245;4.42130175;2022-11-13T08:38:49;8.20;99.90
8780;DHT22;62328;51.19929245;4.42130175;2022-11-13T08:41:18;8.30;99.90
8780;DHT22;62328;51.19929245;4.42130175;2022-11-13T08:43:48;8.30;99.90
8780;DHT22;62328;51.19929245;4.42130175;2022-11-13T08:46:18;8.40;99.90
8780;DHT22;62328;51.19929245;4.42130175;2022-11-13T08:48:50;8.40;99.90
8780;DHT22;62328;51.19929245;4.42130175;2022-11-13T08:51:20;8.50;99.90
8780;DHT22;62328;51.19929245;4.42130175;2022-11-13T08:53:49;8.60;99.90
8780;DHT22;62328;51.19929245;4.42130175;2022-11-13T08:56:19;8.60;99.90
8780;DHT22;62328;51.19929245;4.42130175;2022-11-13T08:58:48;8.70;99.90
8780;DHT22;62328;51.19929245;4.42130175;2022-11-13T09:01:19;8.70;99.90
8780;DHT22;62328;51.19929245;4.42130175;2022-11-13T09:03:50;8.80;99.90
8780;DHT22;62328;51.19929245;4.42130175;2022-11-13T09:06:18;8.90;99.90
8780;DHT22;62328;51.19929245;4.42130175;2022-11-13T09:08:49;9.00;99.90
8780;DHT22;62328;51.19929245;4.42130175;2022-11-13T09:11:19;9.00;99.90
8780;DHT22;62328;51.19929245;4.42130175;2022-11-13T09:13:50;9.10;99.90
8780;DHT22;62328;51.19929245;4.42130175;2022-11-13T09:16:19;9.10;99.90
8780;DHT22;62328;51.19929245;4.42130175;2022-11-13T09:18:51;9.20;99.90
8780;DHT22;62328;51.19929245;4.42130175;2022-11-13T09:21:21;9.30;99.90
8780;DHT22;62328;51.19929245;4.42130175;2022-11-13T09:23:48;9.30;99.90
8780;DHT22;62328;51.19929245;4.42130175;2022-11-13T09:26:16;9.30;99.90
8780;DHT22;62328;51.19929245;4.42130175;2022-11-13T09:28:46;9.40;99.90
8780;DHT22;62328;51.19929245;4.42130175;2022-11-13T09:31:15;9.50;99.90
8780;DHT22;62328;51.19929245;4.42130175;2022-11-13T09:33:45;9.60;99.90
8780;DHT22;62328;51.19929245;4.42130175;2022-11-13T09:36:15;9.60;99.90
8780;DHT22;62328;51.19929245;4.42130175;2022-11-13T09:38:44;9.70;99.90
8780;DHT22;62328;51.19929245;4.42130175;2022-11-13T09:41:18;9.70;99.90
8780;DHT22;62328;51.19929245;4.42130175;2022-11-13T09:43:52;9.80;99.90
8780;DHT22;62328;51.19929245;4.42130175;2022-11-13T09:46:28;9.80;99.90
8780;DHT22;62328;51.19929245;4.42130175;2022-11-13T09:49:13;9.90;99.90
8780;DHT22;62328;51.19929245;4.42130175;2022-11-13T09:51:49;9.90;99.90
8780;DHT22;62328;51.19929245;4.42130175;2022-11-13T09:54:18;10.00;99.90
8780;DHT22;62328;51.19929245;4.42130175;2022-11-13T09:56:55;10.10;99.90
8780;DHT22;62328;51.19929245;4.42130175;2022-11-13T09:59:35;10.10;99.90
8780;DHT22;62328;51.19929245;4.42130175;2022-11-13T10:02:15;10.20;99.90
8780;DHT22;62328;51.19929245;4.42130175;2022-11-13T10:04:54;10.30;99.90
8780;DHT22;62328;51.19929245;4.42130175;2022-11-13T10:07:34;10.30;99.90
8780;DHT22;62328;51.19929245;4.42130175;2022-11-13T10:13:27;10.40;99.90
8780;DHT22;62328;51.19929245;4.42130175;2022-11-13T10:16:03;10.50;99.90
8780;DHT22;62328;51.19929245;4.42130175;2022-11-13T10:18:37;10.50;99.90
8780;DHT22;62328;51.19929245;4.42130175;2022-11-13T10:21:13;10.60;99.90
8780;DHT22;62328;51.19929245;4.42130175;2022-11-13T10:23:53;10.70;99.90
8780;DHT22;62328;51.19929245;4.42130175;2022-11-13T10:26:23;10.70;99.90
8780;DHT22;62328;51.19929245;4.42130175;2022-11-13T10:28:59;10.70;99.90
8780;DHT22;62328;51.19929245;4.42130175;2022-11-13T10:31:40;10.80;99.90
8780;DHT22;62328;51.19929245;4.42130175;2022-11-13T10:34:11;10.90;99.90
8780;DHT22;62328;51.19929245;4.42130175;2022-11-13T10:37:10;10.90;99.90
8780;DHT22;62328;51.19929245;4.42130175;2022-11-13T10:39:46;10.90;99.90
8780;DHT22;62328;51.19929245;4.42130175;2022-11-13T10:42:21;11.00;99.90
8780;DHT22;62328;51.19929245;4.42130175;2022-11-13T10:45:11;11.10;99.90
8780;DHT22;62328;51.19929245;4.42130175;2022-11-13T10:47:46;11.20;99.90
8780;DHT22;62328;51.19929245;4.42130175;2022-11-13T10:50:20;11.30;99.90
8780;DHT22;62328;51.19929245;4.42130175;2022-11-13T10:52:51;11.40;99.90
8780;DHT22;62328;51.19929245;4.42130175;2022-11-13T10:55:37;11.50;99.90
8780;DHT22;62328;51.19929245;4.42130175;2022-11-13T10:58:13;11.60;99.90
8780;DHT22;62328;51.19929245;4.42130175;2022-11-13T11:00:45;11.70;99.90
8780;DHT22;62328;51.19929245;4.42130175;2022-11-13T11:03:17;11.80;99.90
8780;DHT22;62328;51.19929245;4.42130175;2022-11-13T11:05:55;11.80;99.90
8780;DHT22;62328;51.19929245;4.42130175;2022-11-13T11:08:28;12.00;99.90
8780;DHT22;62328;51.19929245;4.42130175;2022-11-13T11:11:14;12.10;99.90
8780;DHT22;62328;51.19929245;4.42130175;2022-11-13T11:14:20;12.20;99.90
8780;DHT22;62328;51.19929245;4.42130175;2022-11-13T11:16:52;12.30;99.90
8780;DHT22;62328;51.19929245;4.42130175;2022-11-13T11:19:21;12.40;99.90
8780;DHT22;62328;51.19929245;4.42130175;2022-11-13T11:22:02;12.50;99.90
8780;DHT22;62328;51.19929245;4.42130175;2022-11-13T11:24:42;12.60;99.90
8780;DHT22;62328;51.19929245;4.42130175;2022-11-13T11:27:21;12.70;99.90
8780;DHT22;62328;51.19929245;4.42130175;2022-11-13T11:30:00;12.80;99.90
8780;DHT22;62328;51.19929245;4.42130175;2022-11-13T11:32:39;13.00;99.90
8780;DHT22;62328;51.19929245;4.42130175;2022-11-13T11:35:14;13.10;99.90
8780;DHT22;62328;51.19929245;4.42130175;2022-11-13T11:37:50;13.10;99.90
8780;DHT22;62328;51.19929245;4.42130175;2022-11-13T11:40:25;13.20;99.90
8780;DHT22;62328;51.19929245;4.42130175;2022-11-13T11:43:04;13.30;99.90
8780;DHT22;62328;51.19929245;4.42130175;2022-11-13T11:45:41;13.40;99.90
8780;DHT22;62328;51.19929245;4.42130175;2022-11-13T11:48:14;13.40;99.90
8780;DHT22;62328;51.19929245;4.42130175;2022-11-13T11:50:49;13.40;99.90
8780;DHT22;62328;51.19929245;4.42130175;2022-11-13T11:53:30;13.30;99.90
8780;DHT22;62328;51.19929245;4.42130175;2022-11-13T11:56:21;13.30;99.90
8780;DHT22;62328;51.19929245;4.42130175;2022-11-13T12:05:23;13.40;99.90
8780;DHT22;62328;51.19929245;4.42130175;2022-11-13T12:08:12;13.50;99.90
8780;DHT22;62328;51.19929245;4.42130175;2022-11-13T12:10:49;13.50;99.90
8780;DHT22;62328;51.19929245;4.42130175;2022-11-13T12:13:25;13.60;99.90
8780;DHT22;62328;51.19929245;4.42130175;2022-11-13T12:16:05;13.60;99.90
8780;DHT22;62328;51.19929245;4.42130175;2022-11-13T12:18:46;13.70;99.90
8780;DHT22;62328;51.19929245;4.42130175;2022-11-13T12:21:22;13.70;99.90
8780;DHT22;62328;51.19929245;4.42130175;2022-11-13T12:24:07;13.70;99.90
8780;DHT22;62328;51.19929245;4.42130175;2022-11-13T12:26:45;13.80;99.90
8780;DHT22;62328;51.19929245;4.42130175;2022-11-13T12:29:26;13.80;99.90
8780;DHT22;62328;51.19929245;4.42130175;2022-11-13T12:32:12;13.90;99.90
8780;DHT22;62328;51.19929245;4.42130175;2022-11-13T12:34:47;13.90;99.90
8780;DHT22;62328;51.19929245;4.42130175;2022-11-13T12:37:25;13.90;99.90
8780;DHT22;62328;51.19929245;4.42130175;2022-11-13T12:39:56;13.90;99.90
8780;DHT22;62328;51.19929245;4.42130175;2022-11-13T12:42:29;13.80;99.90
8780;DHT22;62328;51.19929245;4.42130175;2022-11-13T12:45:11;13.90;99.90
8780;DHT22;62328;51.19929245;4.42130175;2022-11-13T12:47:43;13.90;99.90
8780;DHT22;62328;51.19929245;4.42130175;2022-11-13T12:50:25;13.90;99.90
8780;DHT22;62328;51.19929245;4.42130175;2022-11-13T12:53:04;13.90;99.90
8780;DHT22;62328;51.19929245;4.42130175;2022-11-13T12:55:35;13.90;99.90
8780;DHT22;62328;51.19929245;4.42130175;2022-11-13T12:58:16;13.90;99.90
8780;DHT22;62328;51.19929245;4.42130175;2022-11-13T13:01:04;13.90;99.90
8780;DHT22;62328;51.19929245;4.42130175;2022-11-13T13:03:47;13.90;99.90
8780;DHT22;62328;51.19929245;4.42130175;2022-11-13T13:06:36;14.00;99.90
8780;DHT22;62328;51.19929245;4.42130175;2022-11-13T13:09:22;14.00;99.90
8780;DHT22;62328;51.19929245;4.42130175;2022-11-13T13:12:00;14.00;99.90
8780;DHT22;62328;51.19929245;4.42130175;2022-11-13T13:15:07;14.00;99.90
8780;DHT22;62328;51.19929245;4.42130175;2022-11-13T13:17:40;14.00;99.90
8780;DHT22;62328;51.19929245;4.42130175;2022-11-13T13:20:30;14.00;99.90
8780;DHT22;62328;51.19929245;4.42130175;2022-11-13T13:23:01;14.10;99.90
8780;DHT22;62328;51.19929245;4.42130175;2022-11-13T13:25:29;14.10;99.90
8780;DHT22;62328;51.19929245;4.42130175;2022-11-13T13:28:02;14.10;99.90
8780;DHT22;62328;51.19929245;4.42130175;2022-11-13T13:30:43;14.10;99.90
8780;DHT22;62328;51.19929245;4.42130175;2022-11-13T13:33:20;14.20;99.90
8780;DHT22;62328;51.19929245;4.42130175;2022-11-13T13:36:05;14.20;99.90
8780;DHT22;62328;51.19929245;4.42130175;2022-11-13T13:38:45;14.20;99.90
8780;DHT22;62328;51.19929245;4.42130175;2022-11-13T13:41:24;14.20;99.90
8780;DHT22;62328;51.19929245;4.42130175;2022-11-13T13:44:16;14.20;99.90
8780;DHT22;62328;51.19929245;4.42130175;2022-11-13T13:46:48;14.20;99.90
8780;DHT22;62328;51.19929245;4.42130175;2022-11-13T13:49:18;14.10;99.90
8780;DHT22;62328;51.19929245;4.42130175;2022-11-13T13:51:52;14.10;99.90
8780;DHT22;62328;51.19929245;4.42130175;2022-11-13T13:54:28;14.10;99.90
8780;DHT22;62328;51.19929245;4.42130175;2022-11-13T13:56:59;14.00;99.90
8780;DHT22;62328;51.19929245;4.42130175;2022-11-13T13:59:32;14.00;99.90
8780;DHT22;62328;51.19929245;4.42130175;2022-11-13T14:02:13;13.90;99.90
8780;DHT22;62328;51.19929245;4.42130175;2022-11-13T14:04:43;13.90;99.90
8780;DHT22;62328;51.19929245;4.42130175;2022-11-13T14:07:28;13.90;99.90
8780;DHT22;62328;51.19929245;4.42130175;2022-11-13T14:10:14;13.90;99.90
8780;DHT22;62328;51.19929245;4.42130175;2022-11-13T14:12:45;13.80;99.90
8780;DHT22;62328;51.19929245;4.42130175;2022-11-13T14:15:23;13.80;99.90
8780;DHT22;62328;51.19929245;4.42130175;2022-11-13T14:18:05;13.80;99.90
8780;DHT22;62328;51.19929245;4.42130175;2022-11-13T14:20:40;13.90;99.90
8780;DHT22;62328;51.19929245;4.42130175;2022-11-13T14:23:16;13.90;99.90
8780;DHT22;62328;51.19929245;4.42130175;2022-11-13T14:25:47;13.90;99.90
8780;DHT22;62328;51.19929245;4.42130175;2022-11-13T14:28:19;13.90;99.90
8780;DHT22;62328;51.19929245;4.42130175;2022-11-13T14:30:54;13.90;99.90
8780;DHT22;62328;51.19929245;4.42130175;2022-11-13T14:33:29;14.00;99.90
8780;DHT22;62328;51.19929245;4.42130175;2022-11-13T14:36:00;14.00;99.90
8780;DHT22;62328;51.19929245;4.42130175;2022-11-13T14:38:34;13.90;99.90
8780;DHT22;62328;51.19929245;4.42130175;2022-11-13T14:41:06;13.90;99.90
8780;DHT22;62328;51.19929245;4.42130175;2022-11-13T14:43:37;13.90;99.90
8780;DHT22;62328;51.19929245;4.42130175;2022-11-13T14:46:28;13.80;99.90
8780;DHT22;62328;51.19929245;4.42130175;2022-11-13T14:48:56;13.70;99.90
8780;DHT22;62328;51.19929245;4.42130175;2022-11-13T14:51:27;13.70;99.90
8780;DHT22;62328;51.19929245;4.42130175;2022-11-13T14:54:04;13.60;99.90